createdAt,value
2022-08-22T00:01:32.067Z,17.52
2022-08-22T00:02:48.064Z,19.62
2022-08-22T00:03:06.994Z,17.49
2022-08-22T00:04:34.524Z,17.44
2022-08-22T00:07:10.518Z,17.34
2022-08-22T00:10:08.847Z,17.40
2022-08-22T00:12:49.458Z,17.45
2022-08-22T00:15:42.979Z,17.44
2022-08-22T00:18:29.501Z,17.44
2022-08-22T00:21:26.376Z,17.36
2022-08-22T00:24:27.639Z,17.28
2022-08-22T00:27:18.450Z,17.19
2022-08-22T00:30:03.569Z,17.16
2022-08-22T00:32:40.146Z,17.22
2022-08-22T00:35:32.389Z,17.36
2022-08-22T00:38:13.154Z,17.35
2022-08-22T00:41:03.866Z,17.27
2022-08-22T00:43:33.853Z,17.46
2022-08-22T00:46:23.596Z,17.40
2022-08-22T00:49:18.387Z,17.41
2022-08-22T00:51:54.334Z,17.59
2022-08-22T00:54:58.018Z,17.61
2022-08-22T00:57:43.168Z,17.41
2022-08-22T01:00:16.701Z,17.35
2022-08-22T01:03:02.171Z,17.27
2022-08-22T01:06:00.141Z,17.25
2022-08-22T01:08:50.993Z,17.26
2022-08-22T01:11:48.500Z,17.28
2022-08-22T01:14:35.087Z,17.40
2022-08-22T01:17:26.910Z,17.52
2022-08-22T01:19:59.639Z,17.47
2022-08-22T01:23:07.135Z,17.31
2022-08-22T01:26:19.488Z,17.33
2022-08-22T01:29:09.495Z,17.18
2022-08-22T01:31:59.557Z,17.14
2022-08-22T01:34:39.985Z,17.11
2022-08-22T01:37:28.775Z,17.10
2022-08-22T01:40:00.022Z,17.03
2022-08-22T01:43:05.209Z,16.97
2022-08-22T01:45:47.272Z,17.03
2022-08-22T01:48:58.435Z,17.07
2022-08-22T01:52:19.643Z,17.12
2022-08-22T01:55:06.724Z,17.05
2022-08-22T01:57:50.637Z,16.96
2022-08-22T02:00:34.823Z,16.88
2022-08-22T02:03:32.654Z,17.04
2022-08-22T02:06:05.510Z,17.06
2022-08-22T02:08:47.991Z,17.03
2022-08-22T02:11:52.158Z,16.95
2022-08-22T02:14:36.975Z,16.89
2022-08-22T02:17:32.757Z,16.80
2022-08-22T02:20:21.369Z,16.81
2022-08-22T02:22:57.427Z,16.78
2022-08-22T02:25:33.797Z,16.67
2022-08-22T02:28:38.575Z,16.76
2022-08-22T02:31:46.851Z,16.72
2022-08-22T02:34:35.821Z,16.62
2022-08-22T02:37:34.841Z,16.70
2022-08-22T02:40:16.915Z,16.86
2022-08-22T02:43:11.352Z,16.92
2022-08-22T02:45:53.193Z,16.93
2022-08-22T02:48:39.435Z,16.78
2022-08-22T02:51:57.869Z,16.69
2022-08-22T02:54:39.014Z,16.60
2022-08-22T02:57:14.842Z,16.59
2022-08-22T03:00:32.262Z,16.75
2022-08-22T03:03:14.462Z,16.69
2022-08-22T03:05:51.497Z,16.54
2022-08-22T03:08:34.581Z,16.51
2022-08-22T03:11:29.488Z,16.47
2022-08-22T03:14:30.711Z,16.44
2022-08-22T03:17:10.714Z,16.37
2022-08-22T03:20:06.856Z,16.39
2022-08-22T03:22:56.260Z,16.27
2022-08-22T03:25:33.924Z,16.19
2022-08-22T03:28:17.525Z,16.14
2022-08-22T03:31:26.135Z,16.06
2022-08-22T03:34:26.504Z,16.06
2022-08-22T03:37:06.279Z,15.94
2022-08-22T03:40:05.825Z,15.93
2022-08-22T03:43:03.588Z,16.05
2022-08-22T03:46:21.057Z,15.86
2022-08-22T03:49:32.956Z,15.96
2022-08-22T03:53:02.602Z,15.94
2022-08-22T03:56:20.860Z,15.81
2022-08-22T03:59:16.657Z,15.94
2022-08-22T04:01:49.543Z,16.02
2022-08-22T04:04:32.433Z,16.02
2022-08-22T04:07:33.260Z,15.95
2022-08-22T04:10:40.923Z,15.95
2022-08-22T04:13:38.996Z,15.94
2022-08-22T04:16:29.679Z,15.94
2022-08-22T04:19:12.354Z,15.94
2022-08-22T04:22:19.439Z,15.94
2022-08-22T04:25:10.220Z,15.95
2022-08-22T04:27:49.936Z,15.97
2022-08-22T04:30:16.712Z,16.03
2022-08-22T04:32:57.116Z,16.16
2022-08-22T04:35:32.737Z,16.18
2022-08-22T04:38:11.461Z,16.22
2022-08-22T04:41:04.354Z,16.20
2022-08-22T04:43:37.059Z,16.27
2022-08-22T04:46:52.027Z,16.39
2022-08-22T04:49:29.143Z,16.36
2022-08-22T04:52:29.394Z,16.37
2022-08-22T04:55:36.500Z,16.38
2022-08-22T04:58:10.987Z,16.37
2022-08-22T05:00:44.964Z,16.36
2022-08-22T05:03:16.945Z,16.49
2022-08-22T05:05:46.857Z,16.52
2022-08-22T05:08:20.127Z,16.52
2022-08-22T05:10:50.696Z,16.48
2022-08-22T05:13:24.079Z,16.54
2022-08-22T05:15:53.614Z,16.52
2022-08-22T05:18:31.401Z,16.51
2022-08-22T05:21:02.262Z,16.46
2022-08-22T05:23:38.087Z,16.68
2022-08-22T05:26:07.424Z,16.61
2022-08-22T05:28:41.726Z,16.62
2022-08-22T05:31:18.775Z,16.59
2022-08-22T05:33:56.625Z,16.61
2022-08-22T05:36:31.280Z,16.62
2022-08-22T05:39:04.982Z,16.61
2022-08-22T05:41:36.771Z,16.66
2022-08-22T05:44:04.727Z,16.72
2022-08-22T05:46:42.149Z,16.78
2022-08-22T05:49:19.163Z,16.76
2022-08-22T05:51:55.598Z,16.74
2022-08-22T05:54:33.579Z,16.75
2022-08-22T05:57:15.577Z,16.69
2022-08-22T05:59:43.890Z,16.65
2022-08-22T06:02:19.458Z,16.70
2022-08-22T06:04:51.380Z,16.70
2022-08-22T06:07:27.786Z,16.59
2022-08-22T06:10:24.725Z,16.51
2022-08-22T06:13:27.234Z,16.66
2022-08-22T06:16:20.468Z,16.63
2022-08-22T06:18:50.656Z,16.68
2022-08-22T06:21:31.501Z,16.61
2022-08-22T06:24:02.866Z,16.78
2022-08-22T06:26:36.407Z,16.95
2022-08-22T06:29:07.227Z,17.17
2022-08-22T06:31:44.935Z,17.37
2022-08-22T06:34:15.742Z,17.57
2022-08-22T06:36:48.647Z,17.73
2022-08-22T06:39:21.274Z,17.80
2022-08-22T06:41:53.820Z,17.89
2022-08-22T06:44:25.588Z,17.83
2022-08-22T06:46:58.605Z,17.89
2022-08-22T06:49:27.467Z,17.92
2022-08-22T06:52:00.185Z,17.91
2022-08-22T06:54:34.354Z,17.92
2022-08-22T06:57:03.274Z,17.94
2022-08-22T06:59:35.377Z,18.00
2022-08-22T07:02:17.021Z,18.01
2022-08-22T07:04:44.014Z,18.07
2022-08-22T07:07:10.766Z,18.12
2022-08-22T07:09:41.435Z,18.19
2022-08-22T07:12:19.445Z,18.20
2022-08-22T07:14:51.948Z,18.23
2022-08-22T07:17:23.756Z,18.29
2022-08-22T07:20:35.578Z,18.44
2022-08-22T07:23:12.418Z,18.49
2022-08-22T07:25:54.008Z,18.55
2022-08-22T07:28:51.581Z,18.55
2022-08-22T07:32:03.518Z,18.58
2022-08-22T07:38:56.275Z,18.60
2022-08-22T07:41:30.118Z,18.94
2022-08-22T07:44:16.497Z,19.93
2022-08-22T07:47:06.450Z,20.71
2022-08-22T07:49:41.126Z,20.92
2022-08-22T07:52:17.785Z,21.39
2022-08-22T07:55:11.129Z,21.74
2022-08-22T07:57:43.529Z,21.99
2022-08-22T08:00:20.107Z,22.01
2022-08-22T08:02:51.414Z,21.74
2022-08-22T08:05:20.241Z,21.41
2022-08-22T08:07:48.355Z,21.29
2022-08-22T08:10:36.730Z,21.54
2022-08-22T08:13:08.999Z,21.60
2022-08-22T08:15:38.450Z,21.56
2022-08-22T08:18:12.086Z,21.64
2022-08-22T08:20:39.630Z,21.72
2022-08-22T08:23:10.547Z,21.78
2022-08-22T08:26:01.539Z,21.99
2022-08-22T08:28:34.891Z,22.11
2022-08-22T08:31:20.801Z,22.21
2022-08-22T08:33:50.317Z,22.24
2022-08-22T08:36:41.943Z,22.33
2022-08-22T08:39:35.500Z,22.23
2022-08-22T08:42:11.090Z,22.38
2022-08-22T08:45:15.472Z,22.40
2022-08-22T08:48:08.365Z,22.41
2022-08-22T08:50:53.462Z,22.27
2022-08-22T08:53:27.096Z,22.28
2022-08-22T08:55:58.619Z,22.35
2022-08-22T08:58:41.405Z,22.49
2022-08-22T09:01:19.634Z,22.64
2022-08-22T09:16:04.938Z,23.03
2022-08-22T09:19:09.869Z,23.09
2022-08-22T09:22:14.343Z,23.27
2022-08-22T09:25:18.883Z,23.20
2022-08-22T09:28:06.582Z,23.24
2022-08-22T09:31:00.248Z,23.31
2022-08-22T09:33:34.078Z,23.44
2022-08-22T09:36:06.760Z,23.44
2022-08-22T09:38:51.481Z,23.54
2022-08-22T09:41:37.892Z,23.43
2022-08-22T09:48:43.356Z,23.55
2022-08-22T09:51:31.966Z,23.34
2022-08-22T09:54:15.936Z,23.38
2022-08-22T09:56:58.360Z,23.28
2022-08-22T09:59:51.754Z,23.28
2022-08-22T10:02:37.727Z,23.39
2022-08-22T10:05:40.961Z,23.44
2022-08-22T10:08:30.930Z,23.58
2022-08-22T10:11:21.081Z,23.77
2022-08-22T10:13:57.253Z,24.00
2022-08-22T10:16:47.253Z,24.20
2022-08-22T10:19:27.608Z,24.49
2022-08-22T10:22:32.140Z,24.82
2022-08-22T10:25:16.343Z,24.91
2022-08-22T10:28:14.816Z,24.97
2022-08-22T10:31:09.793Z,24.87
2022-08-22T10:33:46.065Z,25.03
2022-08-22T10:36:41.303Z,25.36
2022-08-22T10:39:16.545Z,25.36
2022-08-22T10:42:28.629Z,25.50
2022-08-22T10:45:36.345Z,25.78
2022-08-22T10:48:07.249Z,25.90
2022-08-22T10:50:45.038Z,26.02
2022-08-22T10:53:51.977Z,25.95
2022-08-22T10:56:49.542Z,26.01
2022-08-22T10:59:29.616Z,25.88
2022-08-22T11:02:05.344Z,26.03
2022-08-22T11:05:07.202Z,26.40
2022-08-22T11:07:50.076Z,26.44
2022-08-22T11:10:45.205Z,26.70
2022-08-22T11:13:31.726Z,26.68
2022-08-22T11:16:08.977Z,26.52
2022-08-22T11:19:15.181Z,26.55
2022-08-22T11:22:00.189Z,26.42
2022-08-22T11:24:34.640Z,26.73
2022-08-22T11:27:13.002Z,26.61
2022-08-22T11:29:57.613Z,26.69
2022-08-22T11:32:59.477Z,27.00
2022-08-22T11:35:37.141Z,27.20
2022-08-22T11:38:36.113Z,27.22
2022-08-22T11:41:15.433Z,27.02
2022-08-22T11:44:15.505Z,27.29
2022-08-22T11:46:49.787Z,27.40
2022-08-22T11:49:31.787Z,27.44
2022-08-22T11:52:06.119Z,27.51
2022-08-22T11:55:16.778Z,27.39
2022-08-22T11:57:48.491Z,27.00
2022-08-22T12:00:50.382Z,27.24
2022-08-22T12:03:39.388Z,27.69
2022-08-22T12:06:20.949Z,28.05
2022-08-22T12:09:15.801Z,27.98
2022-08-22T12:12:15.858Z,27.85
2022-08-22T12:15:12.391Z,27.59
2022-08-22T12:18:01.518Z,27.74
2022-08-22T12:20:46.447Z,27.73
2022-08-22T12:23:50.272Z,27.84
2022-08-22T12:26:56.798Z,27.68
2022-08-22T12:29:45.458Z,27.49
2022-08-22T12:32:27.456Z,27.44
2022-08-22T12:35:32.371Z,27.30
2022-08-22T12:38:28.906Z,27.32
2022-08-22T12:41:36.357Z,27.56
2022-08-22T12:44:18.440Z,27.43
2022-08-22T12:47:17.432Z,26.81
2022-08-22T12:50:06.282Z,27.05
2022-08-22T12:53:02.374Z,27.26
2022-08-22T12:55:37.998Z,27.86
2022-08-22T12:58:41.524Z,27.95
2022-08-22T13:01:10.926Z,28.25
2022-08-22T13:03:46.254Z,28.47
2022-08-22T13:06:34.970Z,28.44
2022-08-22T13:09:15.523Z,28.41
2022-08-22T13:11:45.131Z,27.95
2022-08-22T13:14:19.551Z,27.51
2022-08-22T13:16:53.567Z,27.01
2022-08-22T13:19:24.374Z,26.83
2022-08-22T13:22:02.954Z,27.24
2022-08-22T13:24:52.452Z,27.38
2022-08-22T13:27:34.650Z,27.66
2022-08-22T13:30:12.551Z,27.83
2022-08-22T13:32:45.763Z,27.88
2022-08-22T13:35:51.938Z,28.01
2022-08-22T13:38:49.124Z,28.00
2022-08-22T13:41:25.908Z,27.72
2022-08-22T13:44:08.854Z,27.62
2022-08-22T13:46:52.804Z,27.18
2022-08-22T13:49:36.725Z,27.13
2022-08-22T13:52:28.775Z,26.95
2022-08-22T13:55:01.290Z,27.09
2022-08-22T13:57:34.886Z,26.91
2022-08-22T14:00:29.015Z,26.85
2022-08-22T14:02:56.195Z,26.86
2022-08-22T14:05:34.553Z,26.83
2022-08-22T14:08:20.949Z,27.09
2022-08-22T14:10:55.179Z,27.29
2022-08-22T14:13:32.938Z,27.43
2022-08-22T14:16:36.786Z,27.73
2022-08-22T14:19:52.722Z,27.65
2022-08-22T14:22:31.931Z,27.77
2022-08-22T14:25:07.255Z,28.01
2022-08-22T14:27:34.477Z,28.29
2022-08-22T14:30:13.338Z,28.37
2022-08-22T14:33:05.091Z,28.32
2022-08-22T14:35:37.885Z,28.29
2022-08-22T14:38:29.819Z,28.08
2022-08-22T14:41:05.383Z,27.70
2022-08-22T14:43:32.363Z,27.72
2022-08-22T14:46:45.411Z,27.39
2022-08-22T14:49:29.484Z,27.11
2022-08-22T14:52:04.348Z,27.06
2022-08-22T14:54:37.159Z,27.12
2022-08-22T14:57:10.128Z,27.43
2022-08-22T14:59:43.346Z,27.45
2022-08-22T15:02:27.992Z,27.63
2022-08-22T15:04:56.322Z,27.40
2022-08-22T15:07:27.358Z,27.08
2022-08-22T15:10:03.110Z,27.36
2022-08-22T15:12:37.718Z,27.30
2022-08-22T15:15:27.584Z,27.27
2022-08-22T15:17:55.166Z,27.25
2022-08-22T15:20:33.038Z,27.45
2022-08-22T15:23:14.735Z,27.12
2022-08-22T15:25:47.062Z,26.84
2022-08-22T15:28:20.152Z,26.57
2022-08-22T15:30:56.581Z,26.75
2022-08-22T15:33:40.085Z,26.79
2022-08-22T15:36:20.860Z,26.90
2022-08-22T15:39:25.983Z,26.61
2022-08-22T15:41:54.914Z,26.70
2022-08-22T15:44:32.624Z,26.51
2022-08-22T15:47:26.643Z,26.29
2022-08-22T15:49:59.766Z,26.43
2022-08-22T15:52:32.179Z,26.41
2022-08-22T15:55:16.095Z,26.39
2022-08-22T15:57:52.241Z,26.23
2022-08-22T16:00:36.589Z,26.25
2022-08-22T16:03:27.849Z,26.07
2022-08-22T16:06:01.835Z,26.02
2022-08-22T16:08:49.202Z,26.06
2022-08-22T16:11:33.727Z,26.02
2022-08-22T16:14:24.164Z,26.05
2022-08-22T16:16:56.573Z,25.86
2022-08-22T16:19:26.111Z,25.72
2022-08-22T16:21:55.959Z,25.69
2022-08-22T16:24:22.722Z,25.66
2022-08-22T16:26:52.162Z,25.67
2022-08-22T16:29:41.416Z,25.56
2022-08-22T16:32:11.784Z,25.48
2022-08-22T16:34:44.032Z,25.74
2022-08-22T16:37:18.339Z,25.50
2022-08-22T16:39:58.002Z,25.37
2022-08-22T16:42:38.028Z,25.34
2022-08-22T16:45:13.186Z,25.35
2022-08-22T16:47:43.100Z,25.56
2022-08-22T16:50:21.222Z,25.36
2022-08-22T16:52:51.171Z,25.33
2022-08-22T16:55:30.102Z,25.35
2022-08-22T16:58:07.213Z,25.35
2022-08-22T17:00:58.005Z,25.15
2022-08-22T17:03:51.319Z,25.19
2022-08-22T17:06:49.087Z,25.13
2022-08-22T17:09:46.792Z,25.16
2022-08-22T17:12:40.994Z,25.02
2022-08-22T17:15:34.155Z,24.91
2022-08-22T17:18:24.332Z,24.78
2022-08-22T17:21:10.423Z,24.76
2022-08-22T17:23:49.353Z,24.73
2022-08-22T17:26:34.410Z,25.03
2022-08-22T17:29:19.412Z,24.79
2022-08-22T17:32:21.822Z,24.54
2022-08-22T17:34:57.322Z,24.60
2022-08-22T17:37:35.931Z,24.51
2022-08-22T17:40:38.230Z,24.40
2022-08-22T17:43:48.351Z,24.31
2022-08-22T17:46:52.431Z,24.43
2022-08-22T17:49:28.995Z,24.70
2022-08-22T17:52:07.140Z,25.14
2022-08-22T17:54:45.887Z,25.36
2022-08-22T17:57:34.474Z,25.26
2022-08-22T18:00:08.539Z,24.78
2022-08-22T18:02:50.797Z,24.51
2022-08-22T18:05:20.675Z,24.59
2022-08-22T18:07:56.609Z,24.87
2022-08-22T18:10:42.577Z,24.51
2022-08-22T18:13:21.813Z,24.14
2022-08-22T18:15:57.629Z,23.95
2022-08-22T18:18:40.767Z,23.78
2022-08-22T18:21:25.019Z,23.46
2022-08-22T18:23:59.325Z,23.29
2022-08-22T18:26:42.503Z,23.18
2022-08-22T18:29:16.263Z,23.11
2022-08-22T18:32:11.369Z,23.03
2022-08-22T18:46:38.525Z,22.57
2022-08-22T18:49:16.017Z,22.57
2022-08-22T18:51:43.486Z,22.62
2022-08-22T18:54:15.268Z,22.71
2022-08-22T18:57:30.814Z,22.66
2022-08-22T18:59:57.542Z,22.72
2022-08-22T19:03:10.629Z,22.61
2022-08-22T19:05:59.250Z,22.51
2022-08-22T19:08:53.005Z,22.49
2022-08-22T19:11:42.883Z,22.27
2022-08-22T19:14:18.708Z,22.20
2022-08-22T19:17:23.041Z,22.12
2022-08-22T19:20:18.225Z,21.94
2022-08-22T19:22:45.347Z,21.86
2022-08-22T19:25:20.137Z,21.83
2022-08-22T19:28:11.667Z,21.90
2022-08-22T19:30:50.654Z,21.79
2022-08-22T19:33:19.274Z,21.94
2022-08-22T19:36:04.334Z,22.17
2022-08-22T19:38:50.579Z,22.22
2022-08-22T19:41:59.605Z,22.14
2022-08-22T19:44:26.255Z,22.14
2022-08-22T19:47:08.520Z,21.93
2022-08-22T19:49:38.704Z,22.01
2022-08-22T19:52:30.361Z,21.85
2022-08-22T19:55:22.422Z,21.75
2022-08-22T19:57:52.316Z,21.69
2022-08-22T20:00:27.571Z,21.80
2022-08-22T20:03:03.306Z,21.94
2022-08-22T20:05:58.648Z,21.90
2022-08-22T20:08:58.854Z,21.80
2022-08-22T20:11:28.902Z,21.86
2022-08-22T20:14:30.569Z,21.99
2022-08-22T20:17:03.107Z,21.87
2022-08-22T20:20:17.731Z,21.91
2022-08-22T20:23:25.108Z,21.92
2022-08-22T20:25:55.927Z,21.81
2022-08-22T20:28:40.333Z,21.74
2022-08-22T20:31:12.394Z,21.65
2022-08-22T20:33:46.175Z,21.61
2022-08-22T20:36:28.489Z,21.70
2022-08-22T20:39:05.919Z,21.62
2022-08-22T20:41:35.794Z,21.45
2022-08-22T20:44:12.565Z,21.38
2022-08-22T20:46:53.290Z,21.30
2022-08-22T20:49:28.647Z,21.30
2022-08-22T20:52:07.412Z,21.22
2022-08-22T20:54:38.041Z,21.11
2022-08-22T20:57:17.864Z,21.07
2022-08-22T20:59:57.993Z,21.03
2022-08-22T21:02:34.516Z,20.94
2022-08-22T21:05:06.864Z,21.06
2022-08-22T21:07:37.895Z,21.20
2022-08-22T21:10:25.607Z,21.18
2022-08-22T21:13:11.930Z,21.26
2022-08-22T21:15:45.055Z,21.25
2022-08-22T21:18:14.057Z,21.17
2022-08-22T21:20:41.505Z,21.04
2022-08-22T21:23:13.983Z,20.94
2022-08-22T21:25:50.749Z,20.65
2022-08-22T21:29:02.202Z,20.55
2022-08-22T21:31:33.813Z,20.44
2022-08-22T21:34:02.790Z,20.42
2022-08-22T21:36:31.778Z,20.45
2022-08-22T21:39:03.874Z,20.24
2022-08-22T21:41:38.266Z,20.03
2022-08-22T21:44:30.703Z,19.81
2022-08-22T21:47:14.877Z,19.69
2022-08-22T21:50:05.081Z,19.73
2022-08-22T21:52:36.266Z,19.71
2022-08-22T21:55:30.057Z,19.64
2022-08-22T21:58:35.471Z,19.48
2022-08-22T22:01:35.626Z,19.35
2022-08-22T22:04:11.546Z,19.23
2022-08-22T22:06:38.421Z,19.22
2022-08-22T22:09:09.142Z,19.26
2022-08-22T22:11:39.989Z,19.17
2022-08-22T22:14:10.246Z,19.15
2022-08-22T22:16:38.394Z,19.15
2022-08-22T22:19:07.908Z,19.14
2022-08-22T22:21:38.660Z,19.06
2022-08-22T22:24:05.594Z,18.98
2022-08-22T22:26:32.635Z,18.94
2022-08-22T22:28:59.499Z,18.82
2022-08-22T22:31:26.504Z,18.78
2022-08-22T22:33:53.350Z,18.68
2022-08-22T22:36:26.735Z,18.64
2022-08-22T22:38:54.068Z,18.55
2022-08-22T22:41:38.998Z,18.45
2022-08-22T22:44:05.722Z,18.38
2022-08-22T22:46:32.701Z,18.48
2022-08-22T22:48:59.475Z,18.48
2022-08-22T22:51:26.201Z,18.35
2022-08-22T22:53:52.919Z,18.25
2022-08-22T22:56:23.822Z,18.28
2022-08-22T22:59:13.110Z,18.37
2022-08-22T23:02:00.742Z,18.39
2022-08-22T23:04:28.198Z,18.41
2022-08-22T23:06:54.961Z,18.33
2022-08-22T23:09:21.906Z,18.25
2022-08-22T23:11:54.943Z,18.28
2022-08-22T23:14:23.008Z,18.22
2022-08-22T23:16:49.814Z,18.17
2022-08-22T23:19:17.535Z,18.17
2022-08-22T23:21:48.986Z,18.10
2022-08-22T23:24:18.959Z,18.07
2022-08-22T23:26:45.832Z,17.90
2022-08-22T23:29:12.595Z,17.82
2022-08-22T23:32:00.811Z,17.88
2022-08-22T23:34:37.270Z,17.98
2022-08-22T23:37:08.207Z,17.91
2022-08-22T23:39:38.179Z,17.88
2022-08-22T23:42:06.982Z,17.87
2022-08-22T23:44:35.988Z,17.73
2022-08-22T23:47:07.260Z,17.64
2022-08-22T23:49:34.248Z,17.61
2022-08-22T23:52:01.812Z,17.60
2022-08-22T23:54:28.819Z,17.56
2022-08-22T23:56:58.669Z,17.61
2022-08-22T23:59:33.534Z,17.67
